sensor_id;sensor_type;location;lat;lon;timestamp;pressure;altitude;pressure_sealevel;temperature;humidity
74561;BME280;62979;55.720;37.606;2023-02-28T00:01:13;100230.84;;;-5.24;66.26
74561;BME280;62979;55.720;37.606;2023-02-28T00:03:41;100230.38;;;-5.33;66.74
74561;BME280;62979;55.720;37.606;2023-02-28T00:06:08;100233.94;;;-5.47;66.36
74561;BME280;62979;55.720;37.606;2023-02-28T00:08:36;100228.34;;;-5.40;66.80
74561;BME280;62979;55.720;37.606;2023-02-28T00:11:04;100225.16;;;-5.36;66.50
74561;BME280;62979;55.720;37.606;2023-02-28T00:13:35;100214.78;;;-5.39;66.42
74561;BME280;62979;55.720;37.606;2023-02-28T00:16:05;100220.25;;;-5.49;66.77
74561;BME280;62979;55.720;37.606;2023-02-28T00:18:35;100206.94;;;-5.44;66.95
74561;BME280;62979;55.720;37.606;2023-02-28T00:21:03;100214.06;;;-5.37;66.59
74561;BME280;62979;55.720;37.606;2023-02-28T00:23:30;100204.31;;;-5.27;66.24
74561;BME280;62979;55.720;37.606;2023-02-28T00:25:58;100196.09;;;-5.22;66.08
74561;BME280;62979;55.720;37.606;2023-02-28T00:28:25;100198.78;;;-5.19;65.84
74561;BME280;62979;55.720;37.606;2023-02-28T00:30:52;100213.38;;;-5.34;65.81
74561;BME280;62979;55.720;37.606;2023-02-28T00:33:19;100204.00;;;-5.51;66.23
74561;BME280;62979;55.720;37.606;2023-02-28T00:35:47;100214.66;;;-5.42;66.08
74561;BME280;62979;55.720;37.606;2023-02-28T00:38:15;100201.13;;;-5.41;65.90
74561;BME280;62979;55.720;37.606;2023-02-28T00:40:42;100209.34;;;-5.47;65.85
74561;BME280;62979;55.720;37.606;2023-02-28T00:43:09;100197.78;;;-5.58;66.19
74561;BME280;62979;55.720;37.606;2023-02-28T00:45:36;100181.44;;;-5.62;66.04
74561;BME280;62979;55.720;37.606;2023-02-28T00:48:04;100183.50;;;-5.54;66.04
74561;BME280;62979;55.720;37.606;2023-02-28T00:50:31;100190.47;;;-5.68;65.98
74561;BME280;62979;55.720;37.606;2023-02-28T00:52:59;100188.28;;;-5.78;66.05
74561;BME280;62979;55.720;37.606;2023-02-28T00:55:26;100186.44;;;-5.81;66.34
74561;BME280;62979;55.720;37.606;2023-02-28T00:57:53;100176.47;;;-6.12;66.88
74561;BME280;62979;55.720;37.606;2023-02-28T01:00:20;100176.03;;;-6.21;66.79
74561;BME280;62979;55.720;37.606;2023-02-28T01:02:47;100187.69;;;-6.09;67.28
74561;BME280;62979;55.720;37.606;2023-02-28T01:05:14;100173.25;;;-6.26;67.50
74561;BME280;62979;55.720;37.606;2023-02-28T01:07:41;100169.59;;;-6.31;67.53
74561;BME280;62979;55.720;37.606;2023-02-28T01:10:10;100162.97;;;-6.28;67.42
74561;BME280;62979;55.720;37.606;2023-02-28T01:12:37;100159.00;;;-6.22;67.24
74561;BME280;62979;55.720;37.606;2023-02-28T01:15:05;100151.84;;;-6.30;67.19
74561;BME280;62979;55.720;37.606;2023-02-28T01:17:33;100140.56;;;-6.35;67.70
74561;BME280;62979;55.720;37.606;2023-02-28T01:20:00;100136.94;;;-6.22;67.18
74561;BME280;62979;55.720;37.606;2023-02-28T01:22:27;100142.16;;;-6.03;67.02
74561;BME280;62979;55.720;37.606;2023-02-28T01:24:54;100128.91;;;-5.95;66.78
74561;BME280;62979;55.720;37.606;2023-02-28T01:27:22;100131.47;;;-5.95;66.13
74561;BME280;62979;55.720;37.606;2023-02-28T01:29:50;100114.97;;;-6.04;66.42
74561;BME280;62979;55.720;37.606;2023-02-28T01:32:17;100110.88;;;-6.00;66.39
74561;BME280;62979;55.720;37.606;2023-02-28T01:34:44;100095.31;;;-6.06;66.30
74561;BME280;62979;55.720;37.606;2023-02-28T01:37:11;100108.91;;;-6.06;66.67
74561;BME280;62979;55.720;37.606;2023-02-28T01:39:38;100119.72;;;-6.10;66.49
74561;BME280;62979;55.720;37.606;2023-02-28T01:42:05;100109.56;;;-5.92;66.44
74561;BME280;62979;55.720;37.606;2023-02-28T01:44:57;100086.53;;;-5.95;66.28
74561;BME280;62979;55.720;37.606;2023-02-28T01:47:29;100088.53;;;-6.06;66.32
74561;BME280;62979;55.720;37.606;2023-02-28T01:50:01;100079.84;;;-5.91;66.56
74561;BME280;62979;55.720;37.606;2023-02-28T01:52:31;100083.72;;;-5.82;66.08
74561;BME280;62979;55.720;37.606;2023-02-28T01:55:01;100074.81;;;-5.72;65.84
74561;BME280;62979;55.720;37.606;2023-02-28T01:57:34;100076.22;;;-5.78;65.92
74561;BME280;62979;55.720;37.606;2023-02-28T02:00:08;100068.84;;;-5.90;66.01
74561;BME280;62979;55.720;37.606;2023-02-28T02:02:39;100064.47;;;-5.94;66.21
74561;BME280;62979;55.720;37.606;2023-02-28T02:05:12;100048.63;;;-6.07;66.59
74561;BME280;62979;55.720;37.606;2023-02-28T02:07:43;100058.94;;;-6.04;66.78
74561;BME280;62979;55.720;37.606;2023-02-28T02:12:52;100054.31;;;-5.93;66.10
74561;BME280;62979;55.720;37.606;2023-02-28T02:15:34;100061.94;;;-5.94;66.13
74561;BME280;62979;55.720;37.606;2023-02-28T02:18:12;100055.03;;;-5.97;66.00
74561;BME280;62979;55.720;37.606;2023-02-28T02:24:39;100056.47;;;-6.20;66.58
74561;BME280;62979;55.720;37.606;2023-02-28T02:27:27;100046.94;;;-6.24;66.90
74561;BME280;62979;55.720;37.606;2023-02-28T02:30:37;100034.78;;;-6.30;67.20
74561;BME280;62979;55.720;37.606;2023-02-28T02:36:35;100028.31;;;-6.05;66.41
74561;BME280;62979;55.720;37.606;2023-02-28T02:39:08;100018.94;;;-6.06;66.39
74561;BME280;62979;55.720;37.606;2023-02-28T02:41:46;100023.31;;;-6.04;66.32
74561;BME280;62979;55.720;37.606;2023-02-28T02:44:21;100025.03;;;-6.03;66.42
74561;BME280;62979;55.720;37.606;2023-02-28T02:46:55;100001.63;;;-6.13;66.04
74561;BME280;62979;55.720;37.606;2023-02-28T02:49:30;100004.16;;;-5.95;66.12
74561;BME280;62979;55.720;37.606;2023-02-28T02:52:02;99991.81;;;-6.06;66.27
74561;BME280;62979;55.720;37.606;2023-02-28T02:54:34;99988.09;;;-6.12;66.39
74561;BME280;62979;55.720;37.606;2023-02-28T02:57:07;99995.38;;;-6.20;66.42
74561;BME280;62979;55.720;37.606;2023-02-28T02:59:38;99996.63;;;-6.12;66.04
74561;BME280;62979;55.720;37.606;2023-02-28T03:02:10;99988.19;;;-6.11;65.96
74561;BME280;62979;55.720;37.606;2023-02-28T03:04:45;99986.66;;;-6.25;66.31
74561;BME280;62979;55.720;37.606;2023-02-28T03:07:15;99992.94;;;-6.36;66.74
74561;BME280;62979;55.720;37.606;2023-02-28T03:09:50;99969.66;;;-6.26;66.59
74561;BME280;62979;55.720;37.606;2023-02-28T03:12:20;99966.28;;;-6.25;66.01
74561;BME280;62979;55.720;37.606;2023-02-28T03:14:56;99967.72;;;-6.12;65.99
74561;BME280;62979;55.720;37.606;2023-02-28T03:17:50;99962.59;;;-6.14;65.55
74561;BME280;62979;55.720;37.606;2023-02-28T03:20:36;99967.06;;;-6.08;65.27
74561;BME280;62979;55.720;37.606;2023-02-28T03:23:14;99948.09;;;-6.15;65.40
74561;BME280;62979;55.720;37.606;2023-02-28T03:25:53;99950.00;;;-6.11;65.48
74561;BME280;62979;55.720;37.606;2023-02-28T03:28:30;99942.56;;;-6.06;65.36
74561;BME280;62979;55.720;37.606;2023-02-28T03:31:07;99936.88;;;-6.00;65.08
74561;BME280;62979;55.720;37.606;2023-02-28T03:33:42;99936.44;;;-6.10;65.29
74561;BME280;62979;55.720;37.606;2023-02-28T03:36:24;99921.03;;;-6.13;65.27
74561;BME280;62979;55.720;37.606;2023-02-28T03:38:58;99912.81;;;-6.07;65.02
74561;BME280;62979;55.720;37.606;2023-02-28T03:41:32;99919.34;;;-5.94;64.87
74561;BME280;62979;55.720;37.606;2023-02-28T03:44:07;99908.84;;;-6.20;65.06
74561;BME280;62979;55.720;37.606;2023-02-28T03:46:44;99892.50;;;-6.25;65.23
74561;BME280;62979;55.720;37.606;2023-02-28T03:49:17;99915.25;;;-6.28;65.16
74561;BME280;62979;55.720;37.606;2023-02-28T03:51:50;99901.72;;;-6.27;65.52
74561;BME280;62979;55.720;37.606;2023-02-28T03:54:21;99875.16;;;-6.34;65.50
74561;BME280;62979;55.720;37.606;2023-02-28T03:56:58;99896.41;;;-6.14;65.48
74561;BME280;62979;55.720;37.606;2023-02-28T03:59:33;99882.72;;;-6.16;65.02
74561;BME280;62979;55.720;37.606;2023-02-28T04:02:04;99870.31;;;-6.28;65.45
74561;BME280;62979;55.720;37.606;2023-02-28T04:04:31;99875.53;;;-6.25;65.64
74561;BME280;62979;55.720;37.606;2023-02-28T04:07:04;99870.88;;;-6.15;65.06
74561;BME280;62979;55.720;37.606;2023-02-28T04:09:33;99874.47;;;-6.30;65.18
74561;BME280;62979;55.720;37.606;2023-02-28T04:12:00;99859.47;;;-6.43;65.56
74561;BME280;62979;55.720;37.606;2023-02-28T04:14:27;99861.13;;;-6.43;65.91
74561;BME280;62979;55.720;37.606;2023-02-28T04:16:54;99833.41;;;-6.37;65.57
74561;BME280;62979;55.720;37.606;2023-02-28T04:19:21;99840.09;;;-6.39;65.29
74561;BME280;62979;55.720;37.606;2023-02-28T04:21:50;99836.91;;;-6.35;65.14
74561;BME280;62979;55.720;37.606;2023-02-28T04:24:21;99847.22;;;-6.32;65.19
74561;BME280;62979;55.720;37.606;2023-02-28T04:26:50;99822.25;;;-6.21;64.85
74561;BME280;62979;55.720;37.606;2023-02-28T04:29:20;99852.13;;;-6.17;64.29
74561;BME280;62979;55.720;37.606;2023-02-28T04:31:48;99847.09;;;-6.16;64.01
74561;BME280;62979;55.720;37.606;2023-02-28T04:34:16;99848.44;;;-6.24;64.49
74561;BME280;62979;55.720;37.606;2023-02-28T04:36:44;99837.56;;;-6.20;64.22
74561;BME280;62979;55.720;37.606;2023-02-28T04:39:14;99832.50;;;-6.20;64.16
74561;BME280;62979;55.720;37.606;2023-02-28T04:41:45;99831.84;;;-6.16;64.20
74561;BME280;62979;55.720;37.606;2023-02-28T04:44:12;99825.66;;;-6.21;63.84
74561;BME280;62979;55.720;37.606;2023-02-28T04:46:40;99823.91;;;-6.22;63.98
74561;BME280;62979;55.720;37.606;2023-02-28T04:49:07;99812.22;;;-6.18;64.08
74561;BME280;62979;55.720;37.606;2023-02-28T04:51:34;99805.97;;;-6.06;63.52
74561;BME280;62979;55.720;37.606;2023-02-28T04:54:01;99821.38;;;-6.03;63.31
74561;BME280;62979;55.720;37.606;2023-02-28T04:56:29;99804.09;;;-6.10;63.15
74561;BME280;62979;55.720;37.606;2023-02-28T04:58:57;99819.22;;;-6.13;63.19
74561;BME280;62979;55.720;37.606;2023-02-28T05:01:26;99781.53;;;-6.02;62.95
74561;BME280;62979;55.720;37.606;2023-02-28T05:03:55;99796.28;;;-5.95;62.67
74561;BME280;62979;55.720;37.606;2023-02-28T05:06:25;99799.41;;;-6.00;62.44
74561;BME280;62979;55.720;37.606;2023-02-28T05:08:54;99790.09;;;-6.00;62.46
74561;BME280;62979;55.720;37.606;2023-02-28T05:11:23;99778.44;;;-5.95;62.51
74561;BME280;62979;55.720;37.606;2023-02-28T05:13:52;99779.78;;;-5.82;62.19
74561;BME280;62979;55.720;37.606;2023-02-28T05:16:22;99771.44;;;-5.78;61.69
74561;BME280;62979;55.720;37.606;2023-02-28T05:18:49;99766.75;;;-5.90;61.99
74561;BME280;62979;55.720;37.606;2023-02-28T05:21:26;99747.47;;;-5.83;61.61
74561;BME280;62979;55.720;37.606;2023-02-28T05:23:56;99740.09;;;-5.77;61.14
74561;BME280;62979;55.720;37.606;2023-02-28T05:26:25;99737.00;;;-5.70;60.97
74561;BME280;62979;55.720;37.606;2023-02-28T05:28:53;99731.78;;;-5.73;60.75
74561;BME280;62979;55.720;37.606;2023-02-28T05:31:22;99723.41;;;-5.70;60.56
74561;BME280;62979;55.720;37.606;2023-02-28T05:33:50;99723.94;;;-5.56;59.88
74561;BME280;62979;55.720;37.606;2023-02-28T05:36:17;99713.94;;;-5.52;60.01
74561;BME280;62979;55.720;37.606;2023-02-28T05:38:46;99717.63;;;-5.45;59.53
74561;BME280;62979;55.720;37.606;2023-02-28T05:41:14;99701.00;;;-5.56;59.34
74561;BME280;62979;55.720;37.606;2023-02-28T05:43:42;99700.06;;;-5.59;59.78
74561;BME280;62979;55.720;37.606;2023-02-28T05:46:10;99709.09;;;-5.67;59.68
74561;BME280;62979;55.720;37.606;2023-02-28T05:48:39;99695.34;;;-5.49;59.63
74561;BME280;62979;55.720;37.606;2023-02-28T05:51:08;99685.28;;;-5.46;58.96
74561;BME280;62979;55.720;37.606;2023-02-28T05:53:35;99670.59;;;-5.53;58.85
74561;BME280;62979;55.720;37.606;2023-02-28T05:56:03;99676.97;;;-5.20;58.78
74561;BME280;62979;55.720;37.606;2023-02-28T05:58:30;99676.19;;;-5.17;58.20
74561;BME280;62979;55.720;37.606;2023-02-28T06:00:57;99686.16;;;-5.02;57.51
74561;BME280;62979;55.720;37.606;2023-02-28T06:03:25;99674.09;;;-5.06;57.44
74561;BME280;62979;55.720;37.606;2023-02-28T06:05:53;99684.03;;;-4.90;57.46
74561;BME280;62979;55.720;37.606;2023-02-28T06:08:20;99663.06;;;-4.83;57.16
74561;BME280;62979;55.720;37.606;2023-02-28T06:10:47;99651.00;;;-4.87;56.80
74561;BME280;62979;55.720;37.606;2023-02-28T06:13:14;99654.13;;;-4.94;57.23
74561;BME280;62979;55.720;37.606;2023-02-28T06:15:41;99643.19;;;-4.91;57.28
74561;BME280;62979;55.720;37.606;2023-02-28T06:18:08;99629.94;;;-4.81;56.77
74561;BME280;62979;55.720;37.606;2023-02-28T06:20:35;99625.53;;;-4.61;56.25
74561;BME280;62979;55.720;37.606;2023-02-28T06:23:03;99631.06;;;-4.73;56.18
74561;BME280;62979;55.720;37.606;2023-02-28T06:25:30;99627.66;;;-4.74;56.32
74561;BME280;62979;55.720;37.606;2023-02-28T06:27:57;99638.63;;;-4.76;55.83
74561;BME280;62979;55.720;37.606;2023-02-28T06:30:24;99596.25;;;-4.72;56.00
74561;BME280;62979;55.720;37.606;2023-02-28T06:32:55;99586.41;;;-4.62;55.94
74561;BME280;62979;55.720;37.606;2023-02-28T06:35:22;99589.00;;;-4.60;56.08
74561;BME280;62979;55.720;37.606;2023-02-28T06:37:49;99586.84;;;-4.22;55.99
74561;BME280;62979;55.720;37.606;2023-02-28T06:40:17;99575.41;;;-4.08;55.52
74561;BME280;62979;55.720;37.606;2023-02-28T06:42:44;99596.44;;;-3.90;55.17
74561;BME280;62979;55.720;37.606;2023-02-28T06:45:11;99590.16;;;-3.72;54.67
74561;BME280;62979;55.720;37.606;2023-02-28T06:47:40;99584.97;;;-3.75;54.46
74561;BME280;62979;55.720;37.606;2023-02-28T06:50:10;99577.09;;;-3.81;54.49
74561;BME280;62979;55.720;37.606;2023-02-28T06:52:38;99562.09;;;-3.71;54.74
74561;BME280;62979;55.720;37.606;2023-02-28T06:55:07;99548.59;;;-3.67;54.16
74561;BME280;62979;55.720;37.606;2023-02-28T06:57:36;99542.16;;;-3.82;54.76
74561;BME280;62979;55.720;37.606;2023-02-28T07:00:06;99537.59;;;-3.64;55.10
74561;BME280;62979;55.720;37.606;2023-02-28T07:02:35;99512.59;;;-3.74;54.71
74561;BME280;62979;55.720;37.606;2023-02-28T07:05:03;99520.56;;;-3.63;55.51
74561;BME280;62979;55.720;37.606;2023-02-28T07:07:30;99502.81;;;-3.59;55.62
74561;BME280;62979;55.720;37.606;2023-02-28T07:09:57;99496.63;;;-3.37;55.56
74561;BME280;62979;55.720;37.606;2023-02-28T07:12:24;99484.63;;;-3.39;55.64
74561;BME280;62979;55.720;37.606;2023-02-28T07:14:52;99488.31;;;-3.60;55.90
74561;BME280;62979;55.720;37.606;2023-02-28T07:17:19;99501.53;;;-3.73;56.92
74561;BME280;62979;55.720;37.606;2023-02-28T07:19:46;99470.44;;;-3.60;56.82
74561;BME280;62979;55.720;37.606;2023-02-28T07:22:13;99465.41;;;-3.57;56.81
74561;BME280;62979;55.720;37.606;2023-02-28T07:24:40;99459.72;;;-3.47;57.05
74561;BME280;62979;55.720;37.606;2023-02-28T07:27:07;99479.72;;;-3.32;57.24
74561;BME280;62979;55.720;37.606;2023-02-28T07:29:34;99468.03;;;-3.22;56.88
74561;BME280;62979;55.720;37.606;2023-02-28T07:32:03;99462.19;;;-3.18;56.76
74561;BME280;62979;55.720;37.606;2023-02-28T07:34:30;99461.47;;;-3.12;57.04
74561;BME280;62979;55.720;37.606;2023-02-28T07:36:56;99451.22;;;-3.14;56.97
74561;BME280;62979;55.720;37.606;2023-02-28T07:39:23;99450.19;;;-3.20;57.59
74561;BME280;62979;55.720;37.606;2023-02-28T07:41:50;99423.03;;;-3.17;58.31
74561;BME280;62979;55.720;37.606;2023-02-28T07:44:17;99435.84;;;-3.15;58.72
74561;BME280;62979;55.720;37.606;2023-02-28T07:46:44;99447.25;;;-3.03;58.46
74561;BME280;62979;55.720;37.606;2023-02-28T07:49:12;99432.78;;;-3.02;58.66
74561;BME280;62979;55.720;37.606;2023-02-28T07:51:39;99429.94;;;-3.13;58.69
74561;BME280;62979;55.720;37.606;2023-02-28T07:54:07;99410.69;;;-2.98;58.44
74561;BME280;62979;55.720;37.606;2023-02-28T07:56:34;99430.19;;;-3.04;58.95
74561;BME280;62979;55.720;37.606;2023-02-28T07:59:01;99410.56;;;-3.03;59.20
74561;BME280;62979;55.720;37.606;2023-02-28T08:01:28;99408.13;;;-2.98;59.23
74561;BME280;62979;55.720;37.606;2023-02-28T08:03:54;99433.47;;;-2.74;59.13
74561;BME280;62979;55.720;37.606;2023-02-28T08:06:24;99417.47;;;-2.66;58.55
74561;BME280;62979;55.720;37.606;2023-02-28T08:08:53;99437.56;;;-2.81;58.88
74561;BME280;62979;55.720;37.606;2023-02-28T08:11:21;99414.59;;;-2.80;58.80
74561;BME280;62979;55.720;37.606;2023-02-28T08:13:48;99414.94;;;-2.64;58.60
74561;BME280;62979;55.720;37.606;2023-02-28T08:16:15;99442.25;;;-2.65;58.70
74561;BME280;62979;55.720;37.606;2023-02-28T08:18:46;99400.81;;;-2.48;58.46
74561;BME280;62979;55.720;37.606;2023-02-28T08:21:13;99373.84;;;-2.32;58.13
74561;BME280;62979;55.720;37.606;2023-02-28T08:23:41;99383.94;;;-2.40;58.16
74561;BME280;62979;55.720;37.606;2023-02-28T08:26:08;99362.53;;;-2.44;57.89
74561;BME280;62979;55.720;37.606;2023-02-28T08:28:36;99360.38;;;-2.24;58.06
74561;BME280;62979;55.720;37.606;2023-02-28T08:31:07;99335.03;;;-2.11;57.41
74561;BME280;62979;55.720;37.606;2023-02-28T08:33:36;99359.34;;;-1.91;57.56
74561;BME280;62979;55.720;37.606;2023-02-28T08:36:04;99352.44;;;-1.95;57.14
74561;BME280;62979;55.720;37.606;2023-02-28T08:38:32;99337.00;;;-1.98;57.29
74561;BME280;62979;55.720;37.606;2023-02-28T08:41:02;99338.63;;;-2.02;57.46
74561;BME280;62979;55.720;37.606;2023-02-28T08:43:32;99384.16;;;-1.90;57.60
74561;BME280;62979;55.720;37.606;2023-02-28T08:46:00;99393.03;;;-2.13;58.67
74561;BME280;62979;55.720;37.606;2023-02-28T08:48:28;99402.50;;;-2.11;58.48
74561;BME280;62979;55.720;37.606;2023-02-28T08:50:57;99400.84;;;-2.09;58.29
74561;BME280;62979;55.720;37.606;2023-02-28T08:53:25;99374.09;;;-2.22;58.71
74561;BME280;62979;55.720;37.606;2023-02-28T08:56:00;99386.44;;;-2.42;59.69
74561;BME280;62979;55.720;37.606;2023-02-28T08:58:29;99373.75;;;-2.37;59.52
74561;BME280;62979;55.720;37.606;2023-02-28T09:00:56;99382.38;;;-2.32;60.20
74561;BME280;62979;55.720;37.606;2023-02-28T09:03:24;99377.34;;;-2.29;60.32
74561;BME280;62979;55.720;37.606;2023-02-28T09:05:56;99387.06;;;-2.52;60.64
74561;BME280;62979;55.720;37.606;2023-02-28T09:08:26;99356.16;;;-2.22;60.86
74561;BME280;62979;55.720;37.606;2023-02-28T09:10:54;99349.50;;;-2.13;60.48
74561;BME280;62979;55.720;37.606;2023-02-28T09:13:24;99344.44;;;-2.10;60.63
74561;BME280;62979;55.720;37.606;2023-02-28T09:15:52;99326.50;;;-2.10;60.99
74561;BME280;62979;55.720;37.606;2023-02-28T09:18:19;99317.16;;;-2.08;60.62
74561;BME280;62979;55.720;37.606;2023-02-28T09:20:46;99324.72;;;-2.14;60.41
74561;BME280;62979;55.720;37.606;2023-02-28T09:23:13;99318.00;;;-2.08;60.21
74561;BME280;62979;55.720;37.606;2023-02-28T09:25:45;99313.91;;;-2.00;60.36
74561;BME280;62979;55.720;37.606;2023-02-28T09:28:15;99306.31;;;-1.95;59.98
74561;BME280;62979;55.720;37.606;2023-02-28T09:30:46;99302.25;;;-1.84;60.40
74561;BME280;62979;55.720;37.606;2023-02-28T09:33:16;99292.44;;;-2.06;60.11
74561;BME280;62979;55.720;37.606;2023-02-28T09:35:46;99299.59;;;-2.32;60.75
74561;BME280;62979;55.720;37.606;2023-02-28T09:38:13;99324.72;;;-2.14;60.87
74561;BME280;62979;55.720;37.606;2023-02-28T09:40:47;99324.06;;;-2.04;60.87
74561;BME280;62979;55.720;37.606;2023-02-28T09:43:18;99331.56;;;-2.13;60.81
74561;BME280;62979;55.720;37.606;2023-02-28T09:45:52;99318.09;;;-2.03;60.99
74561;BME280;62979;55.720;37.606;2023-02-28T09:48:29;99343.50;;;-2.14;60.93
74561;BME280;62979;55.720;37.606;2023-02-28T09:51:03;99309.06;;;-2.28;61.77
74561;BME280;62979;55.720;37.606;2023-02-28T09:53:37;99292.09;;;-2.23;61.99
74561;BME280;62979;55.720;37.606;2023-02-28T09:56:07;99287.13;;;-2.16;61.60
74561;BME280;62979;55.720;37.606;2023-02-28T09:58:39;99271.09;;;-2.07;61.26
74561;BME280;62979;55.720;37.606;2023-02-28T10:01:21;99267.56;;;-2.12;61.63
74561;BME280;62979;55.720;37.606;2023-02-28T10:03:57;99267.47;;;-2.15;61.67
74561;BME280;62979;55.720;37.606;2023-02-28T10:06:33;99260.75;;;-2.11;62.06
74561;BME280;62979;55.720;37.606;2023-02-28T10:09:08;99303.63;;;-2.01;61.94
74561;BME280;62979;55.720;37.606;2023-02-28T10:11:42;99273.00;;;-1.95;61.57
74561;BME280;62979;55.720;37.606;2023-02-28T10:14:13;99273.16;;;-1.87;61.71
74561;BME280;62979;55.720;37.606;2023-02-28T10:16:46;99254.31;;;-1.88;62.09
74561;BME280;62979;55.720;37.606;2023-02-28T10:19:20;99256.03;;;-1.88;61.74
74561;BME280;62979;55.720;37.606;2023-02-28T10:21:56;99217.59;;;-1.88;62.23
74561;BME280;62979;55.720;37.606;2023-02-28T10:24:29;99216.47;;;-2.03;62.12
74561;BME280;62979;55.720;37.606;2023-02-28T10:27:06;99226.22;;;-1.85;61.95
74561;BME280;62979;55.720;37.606;2023-02-28T10:29:43;99193.47;;;-2.01;62.32
74561;BME280;62979;55.720;37.606;2023-02-28T10:32:15;99215.22;;;-1.78;61.80
74561;BME280;62979;55.720;37.606;2023-02-28T10:34:49;99220.31;;;-1.79;62.31
74561;BME280;62979;55.720;37.606;2023-02-28T10:37:20;99234.19;;;-1.68;61.77
74561;BME280;62979;55.720;37.606;2023-02-28T10:39:47;99202.53;;;-1.68;62.03
74561;BME280;62979;55.720;37.606;2023-02-28T10:42:23;99226.34;;;-1.76;62.13
74561;BME280;62979;55.720;37.606;2023-02-28T10:45:06;99197.22;;;-1.81;62.35
74561;BME280;62979;55.720;37.606;2023-02-28T10:47:49;99218.06;;;-1.62;62.24
74561;BME280;62979;55.720;37.606;2023-02-28T10:50:28;99211.25;;;-1.59;61.86
74561;BME280;62979;55.720;37.606;2023-02-28T10:53:10;99219.50;;;-1.77;62.40
74561;BME280;62979;55.720;37.606;2023-02-28T10:55:56;99237.63;;;-1.67;62.35
74561;BME280;62979;55.720;37.606;2023-02-28T10:58:25;99193.09;;;-1.73;62.63
74561;BME280;62979;55.720;37.606;2023-02-28T11:00:54;99203.19;;;-1.82;62.87
74561;BME280;62979;55.720;37.606;2023-02-28T11:03:31;99186.31;;;-1.69;62.62
74561;BME280;62979;55.720;37.606;2023-02-28T11:06:05;99193.34;;;-1.57;62.33
74561;BME280;62979;55.720;37.606;2023-02-28T11:08:34;99205.00;;;-1.76;62.88
74561;BME280;62979;55.720;37.606;2023-02-28T11:11:14;99174.75;;;-1.97;63.75
74561;BME280;62979;55.720;37.606;2023-02-28T11:13:44;99174.34;;;-1.70;63.41
74561;BME280;62979;55.720;37.606;2023-02-28T11:16:14;99171.59;;;-1.82;63.38
74561;BME280;62979;55.720;37.606;2023-02-28T11:18:43;99168.84;;;-1.91;63.94
74561;BME280;62979;55.720;37.606;2023-02-28T11:21:17;99174.16;;;-1.81;63.70
74561;BME280;62979;55.720;37.606;2023-02-28T11:23:51;99152.66;;;-1.89;64.14
74561;BME280;62979;55.720;37.606;2023-02-28T11:26:39;99166.66;;;-1.68;63.99
74561;BME280;62979;55.720;37.606;2023-02-28T11:29:20;99159.78;;;-1.73;63.77
74561;BME280;62979;55.720;37.606;2023-02-28T11:32:18;99158.94;;;-1.73;64.12
74561;BME280;62979;55.720;37.606;2023-02-28T11:35:01;99166.53;;;-1.78;64.34
74561;BME280;62979;55.720;37.606;2023-02-28T11:37:31;99158.19;;;-1.64;64.20
74561;BME280;62979;55.720;37.606;2023-02-28T11:39:59;99114.19;;;-1.92;64.55
74561;BME280;62979;55.720;37.606;2023-02-28T11:42:46;99137.34;;;-1.86;64.64
74561;BME280;62979;55.720;37.606;2023-02-28T11:45:36;99112.75;;;-1.75;65.25
74561;BME280;62979;55.720;37.606;2023-02-28T11:48:28;99108.41;;;-1.79;66.40
74561;BME280;62979;55.720;37.606;2023-02-28T11:51:13;99157.34;;;-1.65;66.04
74561;BME280;62979;55.720;37.606;2023-02-28T11:54:01;99127.34;;;-1.70;65.28
74561;BME280;62979;55.720;37.606;2023-02-28T11:56:44;99145.91;;;-1.84;66.10
74561;BME280;62979;55.720;37.606;2023-02-28T11:59:35;99141.78;;;-1.76;66.76
74561;BME280;62979;55.720;37.606;2023-02-28T12:02:25;99133.38;;;-1.67;68.03
74561;BME280;62979;55.720;37.606;2023-02-28T12:05:16;99144.34;;;-1.76;69.50
74561;BME280;62979;55.720;37.606;2023-02-28T12:08:04;99132.53;;;-1.67;71.02
74561;BME280;62979;55.720;37.606;2023-02-28T12:10:51;99127.28;;;-1.74;71.45
74561;BME280;62979;55.720;37.606;2023-02-28T12:13:40;99117.81;;;-1.79;71.19
74561;BME280;62979;55.720;37.606;2023-02-28T12:19:21;99108.41;;;-1.79;70.68
74561;BME280;62979;55.720;37.606;2023-02-28T12:22:17;99120.34;;;-1.81;70.77
74561;BME280;62979;55.720;37.606;2023-02-28T12:25:24;99122.97;;;-1.76;71.02
74561;BME280;62979;55.720;37.606;2023-02-28T12:28:15;99117.03;;;-1.74;71.32
74561;BME280;62979;55.720;37.606;2023-02-28T12:30:51;99111.97;;;-1.69;71.60
74561;BME280;62979;55.720;37.606;2023-02-28T12:33:27;99112.88;;;-1.67;71.39
74561;BME280;62979;55.720;37.606;2023-02-28T12:36:02;99106.66;;;-1.81;71.99
74561;BME280;62979;55.720;37.606;2023-02-28T12:38:38;99088.72;;;-1.83;72.83
74561;BME280;62979;55.720;37.606;2023-02-28T12:41:14;99074.19;;;-1.81;72.40
74561;BME280;62979;55.720;37.606;2023-02-28T12:43:49;99091.50;;;-1.67;71.67
74561;BME280;62979;55.720;37.606;2023-02-28T12:46:27;99089.53;;;-1.84;71.97
74561;BME280;62979;55.720;37.606;2023-02-28T12:49:00;99085.19;;;-1.89;72.28
74561;BME280;62979;55.720;37.606;2023-02-28T12:51:34;99079.75;;;-2.08;73.32
74561;BME280;62979;55.720;37.606;2023-02-28T12:54:11;99064.59;;;-1.96;73.06
74561;BME280;62979;55.720;37.606;2023-02-28T12:56:54;99070.66;;;-1.89;73.10
74561;BME280;62979;55.720;37.606;2023-02-28T12:59:34;99057.97;;;-1.81;72.85
74561;BME280;62979;55.720;37.606;2023-02-28T13:02:34;99043.50;;;-1.78;72.19
74561;BME280;62979;55.720;37.606;2023-02-28T13:05:49;99024.66;;;-1.83;72.07
74561;BME280;62979;55.720;37.606;2023-02-28T13:11:33;99052.06;;;-1.77;71.69
74561;BME280;62979;55.720;37.606;2023-02-28T13:14:21;99027.34;;;-1.72;71.63
74561;BME280;62979;55.720;37.606;2023-02-28T13:16:57;99033.47;;;-1.62;71.24
74561;BME280;62979;55.720;37.606;2023-02-28T13:19:29;99015.31;;;-1.78;71.16
74561;BME280;62979;55.720;37.606;2023-02-28T13:21:59;99023.91;;;-1.74;71.28
74561;BME280;62979;55.720;37.606;2023-02-28T13:24:45;99034.28;;;-1.65;71.31
74561;BME280;62979;55.720;37.606;2023-02-28T13:27:35;99022.44;;;-1.58;71.19
74561;BME280;62979;55.720;37.606;2023-02-28T13:33:30;99043.63;;;-1.70;71.01